createdAt,value
2023-03-25T00:00:49.608Z,19.19
2023-03-25T00:01:49.690Z,19.19
2023-03-25T00:02:49.951Z,19.19
2023-03-25T00:03:49.854Z,19.18
2023-03-25T00:04:50.017Z,19.18
2023-03-25T00:05:55.988Z,19.18
2023-03-25T00:06:50.108Z,19.17
2023-03-25T00:07:50.159Z,19.16
2023-03-25T00:08:50.251Z,19.16
2023-03-25T00:09:50.336Z,19.16
2023-03-25T00:10:50.407Z,19.16
2023-03-25T00:11:50.483Z,19.15
2023-03-25T00:12:50.571Z,19.15
2023-03-25T00:13:50.663Z,19.15
2023-03-25T00:14:50.728Z,19.15
2023-03-25T00:15:50.947Z,19.15
2023-03-25T00:16:50.952Z,19.15
2023-03-25T00:17:51.052Z,19.14
2023-03-25T00:18:51.100Z,19.14
2023-03-25T00:19:51.172Z,19.14
2023-03-25T00:20:51.277Z,19.14
2023-03-25T00:21:51.344Z,19.14
2023-03-25T00:22:51.452Z,19.14
2023-03-25T00:23:51.501Z,19.14
2023-03-25T00:24:51.584Z,19.13
2023-03-25T00:25:51.849Z,19.13
2023-03-25T00:26:51.732Z,19.13
2023-03-25T00:27:51.817Z,19.13
2023-03-25T00:28:51.904Z,19.13
2023-03-25T00:29:51.964Z,19.12
2023-03-25T00:30:52.124Z,19.12
2023-03-25T00:31:52.182Z,19.12
2023-03-25T00:32:52.280Z,19.12
2023-03-25T00:33:52.330Z,19.12
2023-03-25T00:34:52.363Z,19.11
2023-03-25T00:35:52.770Z,19.11
2023-03-25T00:36:58.496Z,19.10
2023-03-25T00:37:52.644Z,19.10
2023-03-25T00:38:52.693Z,19.09
2023-03-25T00:39:52.803Z,19.10
2023-03-25T00:40:52.866Z,19.09
2023-03-25T00:41:52.943Z,19.10
2023-03-25T00:42:53.014Z,19.09
2023-03-25T00:43:53.102Z,19.10
2023-03-25T00:44:53.239Z,19.10
2023-03-25T00:45:53.417Z,19.10
2023-03-25T00:46:53.353Z,19.10
2023-03-25T00:47:53.460Z,19.10
2023-03-25T00:48:53.508Z,19.10
2023-03-25T00:49:53.608Z,19.10
2023-03-25T00:50:53.680Z,19.10
2023-03-25T00:51:54.223Z,19.09
2023-03-25T00:52:53.850Z,19.09
2023-03-25T00:53:53.942Z,19.08
2023-03-25T00:54:54.024Z,19.08
2023-03-25T00:55:54.100Z,19.08
2023-03-25T00:56:54.197Z,19.08
2023-03-25T00:57:54.248Z,19.07
2023-03-25T00:58:54.323Z,19.07
2023-03-25T00:59:54.395Z,19.07
2023-03-25T01:00:54.480Z,19.06
2023-03-25T01:01:54.602Z,19.06
2023-03-25T01:02:54.728Z,19.06
2023-03-25T01:03:54.692Z,19.06
2023-03-25T01:04:54.788Z,19.06
2023-03-25T01:05:54.882Z,19.06
2023-03-25T01:06:54.992Z,19.06
2023-03-25T01:08:01.045Z,19.06
2023-03-25T01:08:55.149Z,19.06
2023-03-25T01:09:55.213Z,19.05
2023-03-25T01:10:55.289Z,19.05
2023-03-25T01:11:55.395Z,19.05
2023-03-25T01:12:55.498Z,19.04
2023-03-25T01:13:55.564Z,19.04
2023-03-25T01:14:55.658Z,19.04
2023-03-25T01:15:55.768Z,19.04
2023-03-25T01:16:55.822Z,19.04
2023-03-25T01:17:55.979Z,19.04
2023-03-25T01:18:56.012Z,19.03
2023-03-25T01:19:56.090Z,19.03
2023-03-25T01:20:56.186Z,19.03
2023-03-25T01:21:56.282Z,19.03
2023-03-25T01:22:56.332Z,19.03
2023-03-25T01:23:56.410Z,19.03
2023-03-25T01:24:56.497Z,19.03
2023-03-25T01:25:56.565Z,19.03
2023-03-25T01:26:56.653Z,19.03
2023-03-25T01:27:56.744Z,19.02
2023-03-25T01:28:56.817Z,19.02
2023-03-25T01:29:56.917Z,19.02
2023-03-25T01:30:57.007Z,19.02
2023-03-25T01:31:57.076Z,19.02
2023-03-25T01:32:57.209Z,19.02
2023-03-25T01:33:57.248Z,19.02
2023-03-25T01:34:57.327Z,19.02
2023-03-25T01:35:57.419Z,19.02
2023-03-25T01:36:57.489Z,19.02
2023-03-25T01:37:57.568Z,19.02
2023-03-25T01:39:03.602Z,19.01
2023-03-25T01:39:57.702Z,19.01
2023-03-25T01:40:57.780Z,19.00
2023-03-25T01:41:57.857Z,19.00
2023-03-25T01:42:57.942Z,19.00
2023-03-25T01:43:58.013Z,19.00
2023-03-25T01:44:58.086Z,19.00
2023-03-25T01:45:58.173Z,18.99
2023-03-25T01:46:58.285Z,18.99
2023-03-25T01:47:58.445Z,18.99
2023-03-25T01:48:58.438Z,18.99
2023-03-25T01:49:58.512Z,18.99
2023-03-25T01:50:58.577Z,19.00
2023-03-25T01:51:58.661Z,19.00
2023-03-25T01:52:58.734Z,19.00
2023-03-25T01:53:58.862Z,19.00
2023-03-25T01:54:58.888Z,19.00
2023-03-25T01:55:58.965Z,18.99
2023-03-25T01:56:59.080Z,18.99
2023-03-25T01:57:59.122Z,18.99
2023-03-25T01:58:59.194Z,18.99
2023-03-25T01:59:59.297Z,18.99
2023-03-25T02:00:59.379Z,18.99
2023-03-25T02:01:59.450Z,18.99
2023-03-25T02:02:59.535Z,18.99
2023-03-25T02:03:59.651Z,18.99
2023-03-25T02:04:59.702Z,18.99
2023-03-25T02:05:59.785Z,18.99
2023-03-25T02:06:59.864Z,18.99
2023-03-25T02:07:59.940Z,18.98
2023-03-25T02:09:00.003Z,18.98
2023-03-25T02:10:06.085Z,18.98
2023-03-25T02:11:00.213Z,18.98
2023-03-25T02:12:00.284Z,18.98
2023-03-25T02:13:00.369Z,18.98
2023-03-25T02:14:00.456Z,18.98
2023-03-25T02:15:00.527Z,18.98
2023-03-25T02:16:00.656Z,18.97
2023-03-25T02:17:00.671Z,18.97
2023-03-25T02:18:00.789Z,18.97
2023-03-25T02:19:00.826Z,18.97
2023-03-25T02:20:00.893Z,18.97
2023-03-25T02:21:00.972Z,18.97
2023-03-25T02:22:01.079Z,18.97
2023-03-25T02:23:01.160Z,18.98
2023-03-25T02:24:01.234Z,18.97
2023-03-25T02:25:01.314Z,18.97
2023-03-25T02:26:01.388Z,18.97
2023-03-25T02:27:01.519Z,18.97
2023-03-25T02:28:01.593Z,18.97
2023-03-25T02:29:01.656Z,18.97
2023-03-25T02:30:01.733Z,18.96
2023-03-25T02:31:01.804Z,18.96
2023-03-25T02:32:02.037Z,18.96
2023-03-25T02:33:02.032Z,18.96
2023-03-25T02:34:02.046Z,18.96
2023-03-25T02:35:02.108Z,18.96
2023-03-25T02:36:02.243Z,18.96
2023-03-25T02:37:02.258Z,18.96
2023-03-25T02:38:02.343Z,18.95
2023-03-25T02:39:02.425Z,18.95
2023-03-25T02:40:02.518Z,18.95
2023-03-25T02:41:08.570Z,18.95
2023-03-25T02:42:02.659Z,18.95
2023-03-25T02:43:02.743Z,18.94
2023-03-25T02:44:02.830Z,18.94
2023-03-25T02:45:02.912Z,18.94
2023-03-25T02:46:03.028Z,18.94
2023-03-25T02:47:03.069Z,18.94
2023-03-25T02:48:03.174Z,18.94
2023-03-25T02:49:03.221Z,18.94
2023-03-25T02:50:03.323Z,18.94
2023-03-25T02:51:03.418Z,18.94
2023-03-25T02:52:03.454Z,18.94
2023-03-25T02:53:03.552Z,18.94
2023-03-25T02:54:03.588Z,18.94
2023-03-25T02:55:03.683Z,18.94
2023-03-25T02:56:03.758Z,18.93
2023-03-25T02:57:04.017Z,18.93
2023-03-25T02:58:03.925Z,18.93
2023-03-25T02:59:03.993Z,18.93
2023-03-25T03:00:04.074Z,18.93
2023-03-25T03:01:04.216Z,18.93
2023-03-25T03:02:04.306Z,18.93
2023-03-25T03:03:04.370Z,18.93
2023-03-25T03:04:04.412Z,18.92
2023-03-25T03:05:04.485Z,18.92
2023-03-25T03:06:04.572Z,18.92
2023-03-25T03:07:04.657Z,18.92
2023-03-25T03:08:04.773Z,18.92
2023-03-25T03:09:04.825Z,18.92
2023-03-25T03:10:04.914Z,18.92
2023-03-25T03:11:04.980Z,18.92
2023-03-25T03:12:11.330Z,18.92
2023-03-25T03:13:05.148Z,18.92
2023-03-25T03:14:05.195Z,18.91
2023-03-25T03:15:05.288Z,18.91
2023-03-25T03:16:05.374Z,18.91
2023-03-25T03:17:05.468Z,18.91
2023-03-25T03:18:05.674Z,18.91
2023-03-25T03:19:05.632Z,18.91
2023-03-25T03:20:05.741Z,18.91
2023-03-25T03:21:05.783Z,18.91
2023-03-25T03:22:05.877Z,18.91
2023-03-25T03:23:05.942Z,18.91
2023-03-25T03:24:06.052Z,18.91
2023-03-25T03:25:06.121Z,18.91
2023-03-25T03:26:06.246Z,18.91
2023-03-25T03:27:06.290Z,18.91
2023-03-25T03:28:06.370Z,18.90
2023-03-25T03:29:06.447Z,18.90
2023-03-25T03:30:06.559Z,18.90
2023-03-25T03:31:06.826Z,18.90
2023-03-25T03:32:07.343Z,18.90
2023-03-25T03:33:06.896Z,18.90
2023-03-25T03:34:06.896Z,18.90
2023-03-25T03:35:06.999Z,18.89
2023-03-25T03:36:07.090Z,18.89
2023-03-25T03:37:07.168Z,18.89
2023-03-25T03:38:07.219Z,18.89
2023-03-25T03:39:07.315Z,18.89
2023-03-25T03:40:07.400Z,18.90
2023-03-25T03:41:07.490Z,18.90
2023-03-25T03:42:07.559Z,18.90
2023-03-25T03:43:13.627Z,18.89
2023-03-25T03:44:07.714Z,18.89
2023-03-25T03:45:07.817Z,18.88
2023-03-25T03:46:07.918Z,18.88
2023-03-25T03:47:07.983Z,18.88
2023-03-25T03:48:08.044Z,18.88
2023-03-25T03:49:08.122Z,18.88
2023-03-25T03:50:08.201Z,18.88
2023-03-25T03:51:08.298Z,18.88
2023-03-25T03:52:08.879Z,18.88
2023-03-25T03:53:08.467Z,18.88
2023-03-25T03:54:08.540Z,18.88
2023-03-25T03:55:08.609Z,18.88
2023-03-25T03:56:08.724Z,18.88
2023-03-25T03:57:08.830Z,18.88
2023-03-25T03:58:08.850Z,18.87
2023-03-25T03:59:08.928Z,18.88
2023-03-25T04:00:08.985Z,18.88
2023-03-25T04:01:09.060Z,18.88
2023-03-25T04:02:09.237Z,18.88
2023-03-25T04:03:09.310Z,18.87
2023-03-25T04:04:09.330Z,18.87
2023-03-25T04:05:09.442Z,18.87
2023-03-25T04:06:09.473Z,18.87
2023-03-25T04:07:09.536Z,18.87
2023-03-25T04:08:09.605Z,18.87
2023-03-25T04:09:09.671Z,18.87
2023-03-25T04:10:09.766Z,18.87
2023-03-25T04:11:09.850Z,18.87
2023-03-25T04:12:09.973Z,18.87
2023-03-25T04:13:10.005Z,18.87
2023-03-25T04:14:16.070Z,18.86
2023-03-25T04:15:10.185Z,18.86
2023-03-25T04:16:10.294Z,18.86
2023-03-25T04:17:10.357Z,18.86
2023-03-25T04:18:10.462Z,18.86
2023-03-25T04:19:10.514Z,18.86
2023-03-25T04:20:10.588Z,18.86
2023-03-25T04:21:10.662Z,18.86
2023-03-25T04:22:10.754Z,18.86
2023-03-25T04:23:10.821Z,18.85
2023-03-25T04:24:10.904Z,18.85
2023-03-25T04:25:11.010Z,18.85
2023-03-25T04:26:11.088Z,18.85
2023-03-25T04:27:11.177Z,18.85
2023-03-25T04:28:11.251Z,18.85
2023-03-25T04:29:11.323Z,18.85
2023-03-25T04:30:11.392Z,18.85
2023-03-25T04:31:11.508Z,18.85
2023-03-25T04:32:11.574Z,18.85
2023-03-25T04:33:11.673Z,18.85
2023-03-25T04:34:11.714Z,18.84
2023-03-25T04:35:11.790Z,18.85
2023-03-25T04:36:11.941Z,18.85
2023-03-25T04:37:11.936Z,18.85
2023-03-25T04:38:12.042Z,18.85
2023-03-25T04:39:12.097Z,18.84
2023-03-25T04:40:12.174Z,18.84
2023-03-25T04:41:12.323Z,18.84
2023-03-25T04:42:12.327Z,18.84
2023-03-25T04:43:12.437Z,18.84
2023-03-25T04:44:12.517Z,18.84
2023-03-25T04:45:18.591Z,18.84
2023-03-25T04:46:12.702Z,18.84
2023-03-25T04:47:12.768Z,18.83
2023-03-25T04:48:12.843Z,18.83
2023-03-25T04:49:12.941Z,18.83
2023-03-25T04:50:13.026Z,18.83
2023-03-25T04:51:13.095Z,18.83
2023-03-25T04:52:13.171Z,18.83
2023-03-25T04:53:13.248Z,18.83
2023-03-25T04:54:13.345Z,18.83
2023-03-25T04:55:13.424Z,18.83
2023-03-25T04:56:13.499Z,18.83
2023-03-25T04:57:13.583Z,18.83
2023-03-25T04:58:13.646Z,18.83
2023-03-25T04:59:13.724Z,18.82
2023-03-25T05:00:13.813Z,18.82
2023-03-25T05:01:13.942Z,18.82
2023-03-25T05:02:13.987Z,18.82
2023-03-25T05:03:14.031Z,18.82
2023-03-25T05:04:14.132Z,18.82
2023-03-25T05:05:14.205Z,18.82
2023-03-25T05:06:14.280Z,18.82
2023-03-25T05:07:14.369Z,18.82
2023-03-25T05:08:14.452Z,18.82
2023-03-25T05:09:14.526Z,18.82
2023-03-25T05:10:14.600Z,18.82
2023-03-25T05:11:14.674Z,18.82
2023-03-25T05:12:14.750Z,18.82
2023-03-25T05:13:14.833Z,18.81
2023-03-25T05:14:14.909Z,18.81
2023-03-25T05:15:14.987Z,18.81
2023-03-25T05:16:21.091Z,18.81
2023-03-25T05:17:15.178Z,18.81
2023-03-25T05:18:15.259Z,18.81
2023-03-25T05:19:15.334Z,18.81
2023-03-25T05:20:15.417Z,18.81
2023-03-25T05:21:15.484Z,18.81
2023-03-25T05:22:15.564Z,18.81
2023-03-25T05:23:15.678Z,18.81
2023-03-25T05:24:15.755Z,18.81
2023-03-25T05:25:15.834Z,18.81
2023-03-25T05:26:16.541Z,18.81
2023-03-25T05:27:15.969Z,18.81
2023-03-25T05:28:16.067Z,18.81
2023-03-25T05:29:16.097Z,18.81
2023-03-25T05:30:16.184Z,18.81
2023-03-25T05:31:16.262Z,18.81
2023-03-25T05:32:16.362Z,18.81
2023-03-25T05:33:16.443Z,18.81
2023-03-25T05:34:16.533Z,18.81
2023-03-25T05:35:16.601Z,18.81
2023-03-25T05:36:16.669Z,18.82
2023-03-25T05:37:16.758Z,18.82
2023-03-25T05:38:16.839Z,18.82
2023-03-25T05:39:16.937Z,18.81
2023-03-25T05:40:17.021Z,18.82
2023-03-25T05:41:17.101Z,18.82
2023-03-25T05:42:17.162Z,18.82
2023-03-25T05:43:17.247Z,18.83
2023-03-25T05:44:17.321Z,18.83
2023-03-25T05:45:17.422Z,18.83
2023-03-25T05:46:17.537Z,18.84
2023-03-25T05:47:23.933Z,18.84
2023-03-25T05:48:17.661Z,18.84
2023-03-25T05:49:17.736Z,18.84
2023-03-25T05:50:17.821Z,18.85
2023-03-25T05:51:17.935Z,18.85
2023-03-25T05:52:17.971Z,18.86
2023-03-25T05:53:18.052Z,18.86
2023-03-25T05:54:18.136Z,18.86
2023-03-25T05:55:20.515Z,18.86
2023-03-25T05:56:18.308Z,18.86
2023-03-25T05:57:18.454Z,18.86
2023-03-25T05:58:18.446Z,18.87
2023-03-25T05:59:18.538Z,18.87
2023-03-25T06:00:18.613Z,18.87
2023-03-25T06:01:31.755Z,18.88
2023-03-25T06:02:18.791Z,18.88
2023-03-25T06:03:18.973Z,18.89
2023-03-25T06:04:18.983Z,18.90
2023-03-25T06:05:19.074Z,18.90
2023-03-25T06:06:19.101Z,18.91
2023-03-25T06:07:19.190Z,18.92
2023-03-25T06:08:19.312Z,18.92
2023-03-25T06:09:19.351Z,18.93
2023-03-25T06:10:19.446Z,18.93
2023-03-25T06:11:19.522Z,18.94
2023-03-25T06:12:19.610Z,18.94
2023-03-25T06:13:19.725Z,18.94
2023-03-25T06:14:19.797Z,18.95
2023-03-25T06:15:19.866Z,18.96
2023-03-25T06:16:19.969Z,18.96
2023-03-25T06:17:20.047Z,18.96
2023-03-25T06:18:26.125Z,18.97
2023-03-25T06:19:20.243Z,18.97
2023-03-25T06:20:20.308Z,18.97
2023-03-25T06:21:20.405Z,18.97
2023-03-25T06:22:20.513Z,18.98
2023-03-25T06:23:20.578Z,18.98
2023-03-25T06:24:20.654Z,18.99
2023-03-25T06:25:20.806Z,19.00
2023-03-25T06:26:20.806Z,19.01
2023-03-25T06:27:20.885Z,19.01
2023-03-25T06:28:21.565Z,19.02
2023-03-25T06:29:21.038Z,19.03
2023-03-25T06:30:21.148Z,19.04
2023-03-25T06:31:21.238Z,19.04
2023-03-25T06:32:21.274Z,19.05
2023-03-25T06:33:42.375Z,19.05
2023-03-25T06:34:23.294Z,19.06
2023-03-25T06:35:21.497Z,19.07
2023-03-25T06:36:21.644Z,19.08
2023-03-25T06:37:21.654Z,19.08
2023-03-25T06:38:21.717Z,19.09
2023-03-25T06:39:21.806Z,19.10
2023-03-25T06:40:21.879Z,19.10
2023-03-25T06:41:22.040Z,19.10
2023-03-25T06:42:22.024Z,19.10
2023-03-25T06:43:22.104Z,19.10
2023-03-25T06:44:24.507Z,19.10
2023-03-25T06:45:22.245Z,19.10
2023-03-25T06:46:22.344Z,19.10
2023-03-25T06:47:22.447Z,19.10
2023-03-25T06:48:22.458Z,19.10
2023-03-25T06:49:28.491Z,19.10
2023-03-25T06:50:22.594Z,19.10
2023-03-25T06:51:22.674Z,19.10
2023-03-25T06:52:22.748Z,19.10
2023-03-25T06:53:22.867Z,19.11
2023-03-25T06:54:22.933Z,19.11
2023-03-25T06:55:22.974Z,19.11
2023-03-25T06:56:23.049Z,19.12
2023-03-25T06:57:23.127Z,19.12
2023-03-25T06:58:23.225Z,19.13
2023-03-25T06:59:23.296Z,19.13
2023-03-25T07:00:23.409Z,19.14
2023-03-25T07:01:23.475Z,19.14
2023-03-25T07:02:23.564Z,19.15
2023-03-25T07:03:23.652Z,19.15
2023-03-25T07:04:23.723Z,19.16
2023-03-25T07:05:23.879Z,19.16
2023-03-25T07:06:23.889Z,19.17
2023-03-25T07:07:23.977Z,19.18
2023-03-25T07:08:24.162Z,19.19
2023-03-25T07:09:24.165Z,19.20
2023-03-25T07:10:24.234Z,19.21
2023-03-25T07:11:24.331Z,19.22
2023-03-25T07:12:24.384Z,19.23
2023-03-25T07:13:24.448Z,19.24
2023-03-25T07:14:24.527Z,19.25
2023-03-25T07:15:24.618Z,19.26
2023-03-25T07:16:24.736Z,19.26
2023-03-25T07:17:24.785Z,19.27
2023-03-25T07:18:24.847Z,19.28
2023-03-25T07:19:24.920Z,19.29
2023-03-25T07:20:31.263Z,19.30
2023-03-25T07:21:25.070Z,19.30
2023-03-25T07:22:25.141Z,19.30
2023-03-25T07:23:25.230Z,19.31
2023-03-25T07:24:25.299Z,19.31
2023-03-25T07:25:25.391Z,19.31
2023-03-25T07:26:25.496Z,19.31
2023-03-25T07:27:25.577Z,19.32
2023-03-25T07:28:25.661Z,19.32
2023-03-25T07:29:25.729Z,19.32
2023-03-25T07:30:25.809Z,19.32
2023-03-25T07:31:25.933Z,19.32
2023-03-25T07:32:26.045Z,19.32
2023-03-25T07:33:26.076Z,19.32
2023-03-25T07:34:26.150Z,19.32
2023-03-25T07:35:26.308Z,19.32
2023-03-25T07:36:26.338Z,19.32
2023-03-25T07:37:26.412Z,19.32
2023-03-25T07:38:26.504Z,19.32
2023-03-25T07:39:26.584Z,19.32
2023-03-25T07:40:26.662Z,19.31
2023-03-25T07:41:26.743Z,19.31
2023-03-25T07:42:26.816Z,19.30
2023-03-25T07:43:26.911Z,19.30
2023-03-25T07:44:27.013Z,19.30
2023-03-25T07:45:27.180Z,19.29
2023-03-25T07:46:27.208Z,19.29
2023-03-25T07:47:27.296Z,19.29
2023-03-25T07:48:27.352Z,19.30
2023-03-25T07:49:27.469Z,19.30
2023-03-25T07:50:27.563Z,19.30
2023-03-25T07:51:33.569Z,19.30
2023-03-25T07:52:27.681Z,19.30
2023-03-25T07:53:27.758Z,19.30
2023-03-25T07:54:27.828Z,19.31
2023-03-25T07:55:27.919Z,19.31
2023-03-25T07:56:28.014Z,19.32
2023-03-25T07:57:28.086Z,19.32
2023-03-25T07:58:28.165Z,19.33
2023-03-25T07:59:29.351Z,19.33
2023-03-25T08:00:28.340Z,19.34
2023-03-25T08:01:28.412Z,19.34
2023-03-25T08:02:28.552Z,19.34
2023-03-25T08:03:28.643Z,19.34
2023-03-25T08:04:28.645Z,19.34
2023-03-25T08:05:28.740Z,19.35
2023-03-25T08:06:28.822Z,19.35
2023-03-25T08:07:28.902Z,19.36
2023-03-25T08:08:28.984Z,19.36
2023-03-25T08:09:29.063Z,19.36
2023-03-25T08:10:29.177Z,19.36
2023-03-25T08:11:29.211Z,19.37
2023-03-25T08:12:29.304Z,19.37
2023-03-25T08:13:29.340Z,19.37
2023-03-25T08:14:29.421Z,19.38
2023-03-25T08:15:30.109Z,19.38
2023-03-25T08:16:29.595Z,19.38
2023-03-25T08:17:29.684Z,19.38
2023-03-25T08:18:29.766Z,19.39
2023-03-25T08:19:29.828Z,19.39
2023-03-25T08:20:29.927Z,19.40
2023-03-25T08:21:30.004Z,19.40
2023-03-25T08:22:36.046Z,19.41
2023-03-25T08:23:30.171Z,19.42
2023-03-25T08:24:30.234Z,19.42
2023-03-25T08:25:30.323Z,19.43
2023-03-25T08:26:30.389Z,19.44
2023-03-25T08:27:30.466Z,19.45
2023-03-25T08:28:30.528Z,19.45
2023-03-25T08:29:30.614Z,19.45
2023-03-25T08:30:30.697Z,19.46
2023-03-25T08:31:30.782Z,19.46
2023-03-25T08:32:30.853Z,19.46
2023-03-25T08:33:30.929Z,19.45
2023-03-25T08:34:31.033Z,19.45
2023-03-25T08:35:31.088Z,19.45
2023-03-25T08:36:31.170Z,19.45
2023-03-25T08:37:31.252Z,19.45
2023-03-25T08:38:33.104Z,19.46
2023-03-25T08:39:31.405Z,19.46
2023-03-25T08:40:31.511Z,19.46
2023-03-25T08:41:31.584Z,19.46
2023-03-25T08:42:31.645Z,19.47
2023-03-25T08:43:31.735Z,19.47
2023-03-25T08:44:31.789Z,19.47
2023-03-25T08:45:31.866Z,19.47
2023-03-25T08:46:31.982Z,19.47
2023-03-25T08:47:32.053Z,19.48
2023-03-25T08:48:32.106Z,19.48
2023-03-25T08:49:32.187Z,19.48
2023-03-25T08:50:32.255Z,19.48
2023-03-25T08:51:32.334Z,19.47
2023-03-25T08:52:32.439Z,19.47
2023-03-25T08:53:38.539Z,19.47
2023-03-25T08:54:32.607Z,19.47
2023-03-25T08:55:32.685Z,19.46
2023-03-25T08:56:32.803Z,19.46
2023-03-25T08:57:32.863Z,19.46
2023-03-25T08:58:32.942Z,19.46
2023-03-25T08:59:33.015Z,19.45
2023-03-25T09:00:33.074Z,19.45
2023-03-25T09:01:33.230Z,19.44
2023-03-25T09:02:33.289Z,19.44
2023-03-25T09:03:33.319Z,19.43
2023-03-25T09:04:33.421Z,19.43
2023-03-25T09:05:33.616Z,19.44
2023-03-25T09:06:47.959Z,19.44
2023-03-25T09:07:33.659Z,19.43
2023-03-25T09:08:33.755Z,19.43
2023-03-25T09:09:33.817Z,19.44
2023-03-25T09:10:35.104Z,19.45
2023-03-25T09:11:36.750Z,19.46
2023-03-25T09:12:34.050Z,19.47
2023-03-25T09:13:34.131Z,19.47
2023-03-25T09:14:34.211Z,19.48
2023-03-25T09:15:34.357Z,19.50
2023-03-25T09:16:34.416Z,19.51
2023-03-25T09:17:34.500Z,19.52
2023-03-25T09:18:34.529Z,19.54
2023-03-25T09:19:34.626Z,19.55
2023-03-25T09:20:34.688Z,19.56
2023-03-25T09:21:34.763Z,19.57
2023-03-25T09:22:34.856Z,19.57
2023-03-25T09:23:34.936Z,19.58
2023-03-25T09:24:40.988Z,19.59
2023-03-25T09:25:35.082Z,19.60
2023-03-25T09:26:35.159Z,19.60
2023-03-25T09:27:35.318Z,19.60
2023-03-25T09:28:35.311Z,19.61
2023-03-25T09:29:35.411Z,19.61
2023-03-25T09:30:35.490Z,19.62
2023-03-25T09:31:35.610Z,19.63
2023-03-25T09:32:35.671Z,19.64
2023-03-25T09:33:35.740Z,19.65
2023-03-25T09:34:35.828Z,19.65
2023-03-25T09:35:35.961Z,19.64
2023-03-25T09:36:35.951Z,19.64
2023-03-25T09:37:36.073Z,19.64
2023-03-25T09:38:36.153Z,19.64
2023-03-25T09:39:36.223Z,19.64
2023-03-25T09:40:36.330Z,19.65
2023-03-25T09:41:36.386Z,19.65
2023-03-25T09:42:36.461Z,19.65
2023-03-25T09:43:36.555Z,19.66
2023-03-25T09:44:36.638Z,19.66
2023-03-25T09:45:36.731Z,19.66
2023-03-25T09:46:36.802Z,19.67
2023-03-25T09:47:36.902Z,19.68
2023-03-25T09:48:36.956Z,19.68
2023-03-25T09:49:37.051Z,19.69
2023-03-25T09:50:37.916Z,19.69
2023-03-25T09:51:37.189Z,19.69
2023-03-25T09:52:37.269Z,19.68
2023-03-25T09:53:37.338Z,19.68
2023-03-25T09:54:37.422Z,19.68
2023-03-25T09:55:43.816Z,19.68
2023-03-25T09:56:42.270Z,19.68
2023-03-25T09:57:37.648Z,19.69
2023-03-25T09:58:37.752Z,19.69
2023-03-25T09:59:37.815Z,19.70
2023-03-25T10:00:37.992Z,19.71
2023-03-25T10:01:38.047Z,19.73
2023-03-25T10:02:40.781Z,19.73
2023-03-25T10:03:38.133Z,19.74
2023-03-25T10:04:38.213Z,19.73
2023-03-25T10:05:38.277Z,19.74
2023-03-25T10:06:38.380Z,19.74
2023-03-25T10:07:38.495Z,19.74
2023-03-25T10:08:38.571Z,19.73
2023-03-25T10:09:38.656Z,19.73
2023-03-25T10:10:38.718Z,19.73
2023-03-25T10:11:38.780Z,19.74
2023-03-25T10:12:38.866Z,19.74
2023-03-25T10:13:38.951Z,19.74
2023-03-25T10:14:39.027Z,19.74
2023-03-25T10:15:39.117Z,19.74
2023-03-25T10:16:39.263Z,19.75
2023-03-25T10:17:39.275Z,19.76
2023-03-25T10:18:39.335Z,19.78
2023-03-25T10:19:39.434Z,19.81
2023-03-25T10:20:39.478Z,19.83
2023-03-25T10:21:39.569Z,19.85
2023-03-25T10:22:39.658Z,19.87
2023-03-25T10:23:39.735Z,19.88
2023-03-25T10:24:39.814Z,19.90
2023-03-25T10:25:39.921Z,19.92
2023-03-25T10:26:45.948Z,19.94
2023-03-25T10:27:40.054Z,19.95
2023-03-25T10:28:40.119Z,19.95
2023-03-25T10:29:40.207Z,19.95
2023-03-25T10:30:40.293Z,19.95
2023-03-25T10:31:40.385Z,19.94
2023-03-25T10:32:40.454Z,19.94
2023-03-25T10:33:40.519Z,19.94
2023-03-25T10:34:40.600Z,19.93
2023-03-25T10:35:40.732Z,19.92
2023-03-25T10:36:40.819Z,19.92
2023-03-25T10:37:40.872Z,19.92
2023-03-25T10:38:40.941Z,19.93
2023-03-25T10:39:41.010Z,19.93
2023-03-25T10:40:41.096Z,19.93
2023-03-25T10:41:41.164Z,19.93
2023-03-25T10:42:41.209Z,19.92
2023-03-25T10:43:41.316Z,19.91
2023-03-25T10:44:41.413Z,19.90
2023-03-25T10:45:41.495Z,19.90
2023-03-25T10:46:41.557Z,19.90
2023-03-25T10:47:41.684Z,19.91
2023-03-25T10:48:41.727Z,19.92
2023-03-25T10:49:41.839Z,19.93
2023-03-25T10:50:41.912Z,19.94
2023-03-25T10:51:41.977Z,19.95
2023-03-25T10:52:42.083Z,19.96
2023-03-25T10:53:42.128Z,19.97
2023-03-25T10:54:42.201Z,19.98
2023-03-25T10:55:42.269Z,20.00
2023-03-25T10:56:42.407Z,20.01
2023-03-25T10:57:48.866Z,20.02
2023-03-25T10:58:42.541Z,20.03
2023-03-25T10:59:42.600Z,20.03
2023-03-25T11:00:42.672Z,20.04
2023-03-25T11:01:42.737Z,20.05
2023-03-25T11:02:42.924Z,20.05
2023-03-25T11:03:42.945Z,20.05
2023-03-25T11:04:43.027Z,20.05
2023-03-25T11:05:43.107Z,20.04
2023-03-25T11:06:43.200Z,20.03
2023-03-25T11:07:43.280Z,20.02
2023-03-25T11:08:43.352Z,20.01
2023-03-25T11:09:43.443Z,20.01
2023-03-25T11:10:43.518Z,20.00
2023-03-25T11:11:43.595Z,20.00
2023-03-25T11:12:43.732Z,19.99
2023-03-25T11:13:43.759Z,20.00
2023-03-25T11:14:43.843Z,20.01
2023-03-25T11:15:44.003Z,20.01
2023-03-25T11:16:44.052Z,20.03
2023-03-25T11:17:44.119Z,20.03
2023-03-25T11:18:44.157Z,20.04
2023-03-25T11:19:44.237Z,20.04
2023-03-25T11:20:44.321Z,20.05
2023-03-25T11:21:44.401Z,20.06
2023-03-25T11:22:44.482Z,20.08
2023-03-25T11:23:44.569Z,20.09
2023-03-25T11:24:44.652Z,20.10
2023-03-25T11:25:44.736Z,20.11
2023-03-25T11:26:44.825Z,20.11
2023-03-25T11:27:44.913Z,20.10
2023-03-25T11:28:50.977Z,20.10
2023-03-25T11:29:45.072Z,20.10
2023-03-25T11:30:45.199Z,20.10
2023-03-25T11:31:45.238Z,20.10
2023-03-25T11:32:45.362Z,20.10
2023-03-25T11:33:45.406Z,20.09
2023-03-25T11:34:45.535Z,20.09
2023-03-25T11:35:45.597Z,20.09
2023-03-25T11:36:45.635Z,20.10
2023-03-25T11:37:45.715Z,20.10
2023-03-25T11:38:45.798Z,20.10
2023-03-25T11:39:45.876Z,20.10
2023-03-25T11:40:45.950Z,20.11
2023-03-25T11:41:46.042Z,20.11
2023-03-25T11:42:46.109Z,20.13
2023-03-25T11:43:46.197Z,20.14
2023-03-25T11:44:46.273Z,20.16
2023-03-25T11:45:46.463Z,20.17
2023-03-25T11:46:46.567Z,20.20
2023-03-25T11:47:46.602Z,20.21
2023-03-25T11:48:46.657Z,20.22
2023-03-25T11:49:46.722Z,20.23
2023-03-25T11:50:46.803Z,20.24
2023-03-25T11:51:46.873Z,20.25
2023-03-25T11:52:46.941Z,20.27
2023-03-25T11:53:47.039Z,20.28
2023-03-25T11:54:47.156Z,20.30
2023-03-25T11:55:47.196Z,20.32
2023-03-25T11:56:47.286Z,20.32
2023-03-25T11:57:47.376Z,20.33
2023-03-25T11:58:47.449Z,20.34
2023-03-25T11:59:54.754Z,20.35
2023-03-25T12:00:47.624Z,20.35
2023-03-25T12:01:47.694Z,20.35
2023-03-25T12:02:47.894Z,20.35
2023-03-25T12:03:48.082Z,20.36
2023-03-25T12:04:47.906Z,20.36
2023-03-25T12:05:48.061Z,20.37
2023-03-25T12:06:48.106Z,20.38
2023-03-25T12:07:48.140Z,20.39
2023-03-25T12:08:48.243Z,20.40
2023-03-25T12:09:48.294Z,20.40
2023-03-25T12:10:48.365Z,20.41
2023-03-25T12:11:48.466Z,20.41
2023-03-25T12:12:48.540Z,20.41
2023-03-25T12:13:48.632Z,20.40
2023-03-25T12:14:48.711Z,20.40
2023-03-25T12:15:48.945Z,20.39
2023-03-25T12:16:48.867Z,20.38
2023-03-25T12:17:48.994Z,20.38
2023-03-25T12:18:49.040Z,20.36
2023-03-25T12:19:49.119Z,20.35
2023-03-25T12:20:49.388Z,20.33
2023-03-25T12:21:49.302Z,20.32
2023-03-25T12:22:49.370Z,20.31
2023-03-25T12:23:49.477Z,20.31
2023-03-25T12:24:49.527Z,20.31
2023-03-25T12:25:49.892Z,20.32
2023-03-25T12:26:49.675Z,20.33
2023-03-25T12:27:49.755Z,20.34
2023-03-25T12:28:49.847Z,20.35
2023-03-25T12:29:49.933Z,20.36
2023-03-25T12:30:55.967Z,20.36
2023-03-25T12:31:50.130Z,20.36
2023-03-25T12:32:50.170Z,20.36
2023-03-25T12:33:50.185Z,20.36
2023-03-25T12:34:50.280Z,20.36
2023-03-25T12:35:50.472Z,20.37
2023-03-25T12:36:50.444Z,20.37
2023-03-25T12:37:50.515Z,20.37
2023-03-25T12:38:50.604Z,20.39
2023-03-25T12:39:50.681Z,20.40
2023-03-25T12:40:50.921Z,20.42
2023-03-25T12:41:50.867Z,20.43
2023-03-25T12:42:50.947Z,20.43
2023-03-25T12:43:51.017Z,20.44
2023-03-25T12:44:51.090Z,20.45
2023-03-25T12:45:51.202Z,20.46
2023-03-25T12:46:51.264Z,20.47
2023-03-25T12:47:51.348Z,20.47
2023-03-25T12:48:51.414Z,20.48
2023-03-25T12:49:51.492Z,20.48
2023-03-25T12:50:51.695Z,20.48
2023-03-25T12:51:52.296Z,20.49
2023-03-25T12:52:51.827Z,20.49
2023-03-25T12:53:51.866Z,20.49